Time;durP1;ratioP1;P1;durP2;ratioP2;P2;SDS_P1;SDS_P2;PMS_P1;PMS_P2;Temp;Humidity;BMP_temperature;BMP_pressure;BME280_temperature;BME280_humidity;BME280_pressure;Samples;Min_cycle;Max_cycle;Signal;HPM_P1;HPM_P2
2022/09/18 00:00:20;;;;;;;4.85;1.27;;;;;;;11.92;69.93;99157.50;5181532;28;20420;-74
2022/09/18 00:03:10;;;;;;;7.22;0.98;;;;;;;11.22;71.47;99149.94;5179442;28;20052;-74
2022/09/18 00:06:06;;;;;;;8.30;1.40;;;;;;;11.70;70.09;99154.25;5181298;28;20061;-74
2022/09/18 00:08:58;;;;;;;4.65;0.88;;;;;;;11.67;70.64;99159.84;5177413;28;20068;-74
2022/09/18 00:11:49;;;;;;;4.78;1.30;;;;;;;11.73;69.61;99153.94;5179352;28;20187;-74
2022/09/18 00:14:40;;;;;;;6.72;1.02;;;;;;;11.71;69.61;99142.63;5179166;28;20057;-74
2022/09/18 00:17:30;;;;;;;4.32;1.10;;;;;;;11.84;69.48;99150.28;5180089;28;20061;-74
2022/09/18 00:20:20;;;;;;;5.10;1.30;;;;;;;11.74;69.88;99155.63;5180126;28;20049;-74
2022/09/18 00:23:10;;;;;;;13.18;1.35;;;;;;;11.02;71.39;99143.00;5179290;28;20056;-74
2022/09/18 00:26:01;;;;;;;7.78;1.00;;;;;;;11.38;71.28;99159.13;5179340;28;20180;-74
2022/09/18 00:28:52;;;;;;;6.95;0.98;;;;;;;11.25;71.07;99138.19;5173330;28;20060;-74
2022/09/18 00:31:43;;;;;;;8.55;1.33;;;;;;;11.29;70.83;99150.19;5179386;28;20061;-74
2022/09/18 00:34:34;;;;;;;6.03;1.25;;;;;;;11.36;70.36;99155.78;5180866;28;20054;-74
2022/09/18 00:37:24;;;;;;;10.32;1.40;;;;;;;11.63;69.18;99150.50;5179604;28;20109;-74
2022/09/18 00:40:15;;;;;;;5.25;1.13;;;;;;;10.96;71.45;99147.09;5178623;28;20105;-74
2022/09/18 00:43:23;;;;;;;11.98;1.45;;;;;;;11.65;69.81;99164.44;5177737;28;20049;-74
2022/09/18 00:46:35;;;;;;;6.05;1.48;;;;;;;11.48;70.24;99166.06;5177556;28;20050;-74
2022/09/18 00:49:26;;;;;;;4.60;1.10;;;;;;;11.66;69.73;99166.16;5177424;28;20147;-74
2022/09/18 00:52:20;;;;;;;15.93;1.23;;;;;;;11.70;69.91;99156.91;5177284;28;20523;-74
2022/09/18 00:55:10;;;;;;;5.55;1.45;;;;;;;11.24;69.30;99126.75;5176581;28;20057;-74
2022/09/18 00:58:02;;;;;;;8.27;1.60;;;;;;;11.91;68.53;99167.31;5179773;28;20053;-74
2022/09/18 01:00:54;;;;;;;9.68;1.67;;;;;;;11.79;68.79;99164.94;5176852;28;20155;-74
2022/09/18 01:03:44;;;;;;;7.32;1.67;;;;;;;11.04;70.52;99143.72;5179357;28;20479;-74
2022/09/18 01:06:54;;;;;;;6.95;1.00;;;;;;;11.65;68.84;99145.03;5179028;28;20045;-74
2022/09/18 01:09:53;;;;;;;2.28;1.20;;;;;;;11.46;70.05;99162.72;5179780;28;20042;-74
2022/09/18 01:13:07;;;;;;;8.15;1.33;;;;;;;11.54;69.07;99167.31;5180004;28;20421;-74
2022/09/18 01:16:22;;;;;;;7.07;1.20;;;;;;;11.21;70.19;99161.53;5177558;28;20085;-74
2022/09/18 01:19:25;;;;;;;3.95;1.38;;;;;;;11.60;69.70;99172.03;5180660;28;20188;-74
2022/09/18 01:22:38;;;;;;;7.25;1.30;;;;;;;11.98;68.45;99162.22;5182566;28;20057;-74
2022/09/18 01:25:49;;;;;;;5.18;1.08;;;;;;;11.50;69.93;99163.28;5183507;28;20072;-74
2022/09/18 01:28:56;;;;;;;10.35;1.70;;;;;;;11.92;68.44;99162.81;5184602;28;20058;-74
2022/09/18 01:31:55;;;;;;;4.63;1.55;;;;;;;12.08;68.08;99156.84;5182151;28;20088;-74
2022/09/18 01:34:59;;;;;;;7.85;1.30;;;;;;;12.05;67.95;99159.81;5181065;28;20562;-74
2022/09/18 01:38:05;;;;;;;5.53;1.40;;;;;;;11.29;69.51;99166.97;5167687;28;20677;-74
2022/09/18 01:41:01;;;;;;;5.70;1.00;;;;;;;11.15;69.13;99162.09;5182645;28;20092;-74
2022/09/18 01:44:04;;;;;;;4.97;1.20;;;;;;;11.66;68.80;99157.34;5185330;28;20093;-74
2022/09/18 01:46:58;;;;;;;9.27;1.33;;;;;;;11.70;68.24;99145.44;5182198;28;20442;-74
2022/09/18 01:49:55;;;;;;;13.70;1.30;;;;;;;11.97;68.14;99156.09;5183176;28;20061;-74
2022/09/18 01:53:14;;;;;;;7.63;1.63;;;;;;;11.94;66.65;99156.38;5182606;28;20058;-74
2022/09/18 01:56:18;;;;;;;6.60;1.17;;;;;;;11.91;67.47;99166.47;5180537;28;20475;-74
2022/09/18 01:59:15;;;;;;;6.00;1.23;;;;;;;11.63;69.03;99166.44;5183261;28;20046;-74
2022/09/18 02:02:22;;;;;;;;;;;;;;;11.60;68.74;99161.41;5183975;28;20512;-74
2022/09/18 02:05:25;;;;;;;5.55;1.55;;;;;;;11.69;69.47;99157.06;5182665;28;19940;-74
2022/09/18 02:08:27;;;;;;;5.95;1.50;;;;;;;11.77;68.82;99155.31;5181577;28;20412;-74
2022/09/18 02:11:21;;;;;;;5.35;1.33;;;;;;;11.80;68.47;99134.75;5182152;28;20096;-74
2022/09/18 02:14:20;;;;;;;12.95;1.70;;;;;;;11.63;69.59;99150.50;5181046;28;20104;-74
2022/09/18 02:17:47;;;;;;;3.03;1.20;;;;;;;11.65;69.85;99145.84;5181962;28;20654;-74
2022/09/18 02:20:41;;;;;;;6.93;1.50;;;;;;;11.74;70.39;99142.31;5181108;28;20299;-74
2022/09/18 02:23:32;;;;;;;3.75;1.30;;;;;;;11.05;71.67;99142.72;5182329;28;20104;-74
2022/09/18 02:26:22;;;;;;;4.82;1.73;;;;;;;11.32;71.65;99147.25;5181521;28;20056;-74
2022/09/18 02:29:16;;;;;;;6.68;1.85;;;;;;;11.73;69.58;99132.69;5179589;28;20115;-74
2022/09/18 02:32:07;;;;;;;6.60;1.70;;;;;;;11.85;69.92;99135.16;5177868;28;20496;-74
2022/09/18 02:34:57;;;;;;;7.10;2.00;;;;;;;11.58;70.28;99126.19;5176574;28;20072;-74
2022/09/18 02:37:58;;;;;;;3.58;1.67;;;;;;;11.73;69.28;99137.19;5178773;28;20057;-74
2022/09/18 02:40:57;;;;;;;8.82;1.65;;;;;;;11.52;69.75;99137.41;5181505;28;20054;-74
2022/09/18 02:44:00;;;;;;;5.45;1.55;;;;;;;11.63;70.00;99131.06;5182234;28;20492;-74
2022/09/18 02:47:27;;;;;;;6.20;1.80;;;;;;;11.48;71.27;99128.88;5185041;28;20057;-74
2022/09/18 02:50:27;;;;;;;10.32;1.85;;;;;;;11.42;71.02;99145.44;5180926;28;20436;-74
2022/09/18 02:53:23;;;;;;;8.10;2.13;;;;;;;11.41;71.28;99153.53;5179914;28;20081;-74
2022/09/18 02:56:21;;;;;;;3.78;1.70;;;;;;;11.49;70.74;99145.69;5192174;28;20049;-74
2022/09/18 02:59:35;;;;;;;6.75;1.60;;;;;;;11.41;71.04;99138.41;5179944;28;20752;-74
2022/09/18 03:02:27;;;;;;;4.20;1.48;;;;;;;11.49;70.75;99143.03;5179786;28;20085;-73
2022/09/18 03:05:18;;;;;;;7.18;1.48;;;;;;;11.57;69.93;99129.84;5180213;28;20140;-74
2022/09/18 03:08:18;;;;;;;4.32;1.50;;;;;;;11.21;71.29;99134.16;5180293;28;20057;-74
2022/09/18 03:11:08;;;;;;;5.82;1.70;;;;;;;11.77;71.16;99126.09;5181013;28;20068;-74
2022/09/18 03:13:58;;;;;;;3.53;1.40;;;;;;;11.80;70.07;99122.31;5165736;28;20064;-74
2022/09/18 03:16:48;;;;;;;5.80;1.55;;;;;;;11.72;69.77;99124.84;5178523;28;20559;-74
2022/09/18 03:19:39;;;;;;;4.07;1.55;;;;;;;11.96;69.39;99124.34;5180796;28;20057;-74
2022/09/18 03:22:29;;;;;;;4.95;1.40;;;;;;;11.82;69.19;99100.91;5179949;28;20526;-73
2022/09/18 03:25:20;;;;;;;6.00;1.70;;;;;;;11.76;69.45;99123.59;5179256;28;20046;-74
2022/09/18 03:28:10;;;;;;;5.68;1.40;;;;;;;11.32;71.42;99119.88;5177599;28;20613;-74
2022/09/18 03:31:03;;;;;;;5.57;1.30;;;;;;;11.26;71.37;99113.34;5179019;28;20542;-74
2022/09/18 03:33:55;;;;;;;6.68;1.55;;;;;;;11.05;72.34;99122.31;5177859;28;20053;-74
2022/09/18 03:36:48;;;;;;;5.75;1.83;;;;;;;11.74;69.93;99117.59;5165967;28;20049;-74
2022/09/18 03:39:39;;;;;;;4.57;1.48;;;;;;;11.42;71.67;99124.19;5181106;28;20038;-74
2022/09/18 03:42:33;;;;;;;10.63;1.70;;;;;;;11.48;71.40;99130.72;5205958;22;20038;-68
2022/09/18 03:45:24;;;;;;;7.25;1.77;;;;;;;11.41;71.88;99122.50;5180874;28;20252;-68
2022/09/18 03:48:14;;;;;;;2.75;2.03;;;;;;;11.75;70.73;99133.41;5180624;28;20054;-68
2022/09/18 03:51:05;;;;;;;4.88;1.45;;;;;;;11.37;71.18;99120.28;5176248;28;20149;-68
2022/09/18 03:53:55;;;;;;;5.22;1.50;;;;;;;11.33;72.57;99140.16;5145001;28;20073;-68
2022/09/18 03:57:03;;;;;;;7.53;1.38;;;;;;;11.28;71.77;99132.59;5159289;28;20520;-68
2022/09/18 04:00:16;;;;;;;4.10;1.30;;;;;;;11.29;71.85;99142.22;5160246;28;20050;-68
2022/09/18 04:03:11;;;;;;;6.95;1.48;;;;;;;11.60;71.42;99134.03;5152482;28;20065;-68
2022/09/18 04:06:20;;;;;;;5.72;1.42;;;;;;;11.38;69.80;99056.41;5160463;28;20081;-68
2022/09/18 04:09:45;;;;;;;6.03;1.50;;;;;;;11.96;69.80;99132.31;5157733;28;20057;-68
2022/09/18 04:12:35;;;;;;;3.58;1.30;;;;;;;11.37;71.29;99125.59;5159662;28;20062;-68
2022/09/18 04:15:31;;;;;;;7.55;1.98;;;;;;;11.28;72.89;99133.44;5159937;28;20069;-68
2022/09/18 04:18:21;;;;;;;3.28;1.30;;;;;;;11.36;71.82;99129.25;5160139;28;20057;-68
2022/09/18 04:21:12;;;;;;;10.68;1.52;;;;;;;11.23;71.89;99130.41;5158889;28;20523;-68
2022/09/18 04:24:03;;;;;;;6.40;1.80;;;;;;;11.19;72.28;99144.06;5158617;28;20519;-68
2022/09/18 04:26:53;;;;;;;9.13;1.55;;;;;;;11.61;71.06;99146.31;5157928;28;20056;-68
2022/09/18 04:29:46;;;;;;;5.05;1.50;;;;;;;10.71;72.69;99137.91;5155835;28;20144;-68
2022/09/18 04:32:38;;;;;;;5.32;1.75;;;;;;;11.14;72.69;99133.91;5157180;28;20046;-68
2022/09/18 04:35:29;;;;;;;6.05;1.70;;;;;;;10.71;73.14;99127.28;5157359;28;20054;-68
2022/09/18 04:38:26;;;;;;;4.30;1.83;;;;;;;10.84;72.85;99120.84;5156847;28;20058;-68
2022/09/18 04:41:17;;;;;;;6.22;1.65;;;;;;;11.17;72.54;99125.66;5157564;28;20162;-68
2022/09/18 04:44:07;;;;;;;7.60;1.60;;;;;;;10.86;72.50;99129.50;5157873;28;20104;-68
2022/09/18 04:46:57;;;;;;;3.83;1.70;;;;;;;11.33;70.83;99122.41;5160444;28;20479;-68
2022/09/18 04:49:48;;;;;;;3.22;1.45;;;;;;;11.02;72.94;99137.69;5156708;28;20516;-68
2022/09/18 04:52:38;;;;;;;3.90;1.30;;;;;;;11.66;69.80;99130.78;5155372;28;20050;-68
2022/09/18 04:55:29;;;;;;;6.85;1.50;;;;;;;10.93;73.36;99147.38;5162728;28;20456;-68
2022/09/18 04:58:19;;;;;;;6.75;1.67;;;;;;;10.93;74.18;99144.72;5163675;28;20046;-68
2022/09/18 05:01:16;;;;;;;4.35;1.73;;;;;;;11.42;71.55;99137.47;5158955;28;20559;-68
2022/09/18 05:04:06;;;;;;;7.20;1.90;;;;;;;10.81;72.63;99132.56;5162316;28;20180;-68
2022/09/18 05:07:06;;;;;;;3.78;1.60;;;;;;;11.60;70.25;99158.75;5160806;28;20082;-68
2022/09/18 05:09:59;;;;;;;9.38;1.80;;;;;;;11.60;70.96;99155.28;5162759;28;20527;-68
2022/09/18 05:12:53;;;;;;;5.07;2.17;;;;;;;11.73;70.73;99153.94;5156480;28;20572;-68
2022/09/18 05:15:43;;;;;;;5.78;2.03;;;;;;;12.06;69.82;99157.03;5161976;28;20444;-68
2022/09/18 05:18:34;;;;;;;6.05;1.95;;;;;;;11.43;71.44;99155.06;5161830;28;20057;-68
2022/09/18 05:21:25;;;;;;;7.88;1.90;;;;;;;11.51;71.08;99149.00;5159615;28;20082;-68
2022/09/18 05:24:17;;;;;;;3.83;2.15;;;;;;;11.50;71.18;99152.66;5160496;28;20196;-68
2022/09/18 05:27:07;;;;;;;6.70;2.40;;;;;;;10.82;74.44;99158.94;5145256;28;20145;-69
2022/09/18 05:29:58;;;;;;;5.30;2.08;;;;;;;10.79;73.23;99151.31;5142602;28;20681;-69
2022/09/18 05:33:09;;;;;;;5.57;2.40;;;;;;;11.49;71.38;99162.44;5159391;28;20446;-67
2022/09/18 05:36:04;;;;;;;;;;;;;;;11.20;72.81;99157.22;5157342;28;20058;-66
2022/09/18 05:38:54;;;;;;;7.68;2.20;;;;;;;11.61;71.91;99162.25;5161978;28;20311;-66
2022/09/18 05:41:50;;;;;;;7.75;2.80;;;;;;;11.24;72.35;99155.94;5158116;28;20668;-66
2022/09/18 05:44:40;;;;;;;9.05;2.80;;;;;;;11.60;70.66;99176.53;5162706;28;20042;-67
2022/09/18 05:47:37;;;;;;;5.75;2.47;;;;;;;11.60;71.38;99179.19;5161792;28;20055;-66
2022/09/18 05:50:29;;;;;;;8.45;2.55;;;;;;;11.35;72.05;99170.84;5162804;28;20069;-66
2022/09/18 05:53:21;;;;;;;9.98;3.13;;;;;;;11.60;71.15;99182.66;5161338;28;20053;-67
2022/09/18 05:56:32;;;;;;;10.45;2.90;;;;;;;11.45;72.70;99182.28;5160659;28;20061;-69
2022/09/18 05:59:22;;;;;;;5.93;2.67;;;;;;;11.17;72.23;99170.78;5161006;28;20088;-69
2022/09/18 06:02:17;;;;;;;6.72;3.13;;;;;;;10.84;73.63;99169.44;5142904;28;20057;-69
2022/09/18 06:05:26;;;;;;;8.02;2.55;;;;;;;11.14;73.82;99175.53;5161544;28;20136;-69
2022/09/18 06:08:16;;;;;;;6.03;2.60;;;;;;;11.69;71.99;99179.13;5169672;28;20105;-69
2022/09/18 06:11:07;;;;;;;9.00;2.83;;;;;;;11.97;70.15;99185.31;5166818;28;20057;-69
2022/09/18 06:13:57;;;;;;;9.23;3.13;;;;;;;11.76;71.87;99192.66;5163109;28;20108;-69
2022/09/18 06:16:49;;;;;;;5.95;2.67;;;;;;;11.35;73.01;99175.34;5143384;28;20061;-69
2022/09/18 06:19:39;;;;;;;8.18;2.58;;;;;;;11.82;70.30;99193.88;5162345;28;20049;-69
2022/09/18 06:22:31;;;;;;;7.97;2.67;;;;;;;12.03;70.29;99189.22;5159812;28;20412;-69
2022/09/18 06:25:22;;;;;;;9.40;2.65;;;;;;;11.73;70.88;99196.44;5158811;28;20058;-69
2022/09/18 06:28:13;;;;;;;9.07;2.65;;;;;;;11.60;72.10;99189.81;5159594;28;20500;-69
2022/09/18 06:31:04;;;;;;;5.65;2.72;;;;;;;12.05;70.37;99179.25;5158108;28;20117;-69
2022/09/18 06:34:09;;;;;;;4.93;2.80;;;;;;;11.85;70.64;99188.31;5156243;28;20058;-69
2022/09/18 06:37:02;;;;;;;8.65;3.03;;;;;;;12.07;69.66;99182.59;5159646;28;20050;-69
2022/09/18 06:40:12;;;;;;;10.48;3.10;;;;;;;11.70;70.19;99178.16;5161488;28;20058;-69
2022/09/18 06:43:21;;;;;;;3.25;2.90;;;;;;;12.18;70.88;99173.59;5161447;28;20077;-69
2022/09/18 06:46:23;;;;;;;5.63;2.65;;;;;;;12.25;68.83;99147.22;5162213;28;20409;-69
2022/09/18 06:49:15;;;;;;;6.65;2.90;;;;;;;12.70;68.30;99168.44;5160469;28;20054;-69
2022/09/18 06:52:07;;;;;;;8.13;3.03;;;;;;;12.43;69.25;99166.72;5157875;28;20098;-69
2022/09/18 06:54:59;;;;;;;6.13;3.00;;;;;;;12.11;68.85;99169.84;5158414;28;20062;-69
2022/09/18 06:57:54;;;;;;;5.45;2.72;;;;;;;12.25;70.25;99185.31;5161044;28;20541;-69
2022/09/18 07:00:45;;;;;;;5.22;2.53;;;;;;;12.11;69.33;99180.47;5146463;28;20051;-70
2022/09/18 07:03:47;;;;;;;7.68;3.03;;;;;;;12.32;68.75;99181.06;5160106;28;20073;-69
2022/09/18 07:06:44;;;;;;;11.02;2.70;;;;;;;12.82;67.56;99177.03;5160954;28;20046;-70
2022/09/18 07:09:36;;;;;;;7.28;2.40;;;;;;;12.67;67.79;99172.25;5160193;28;20667;-70
2022/09/18 07:12:34;;;;;;;4.10;2.30;;;;;;;12.29;68.78;99164.56;5159780;28;20052;-71
2022/09/18 07:15:27;;;;;;;6.88;2.28;;;;;;;11.95;69.26;99174.00;5159679;28;20053;-67
2022/09/18 07:18:18;;;;;;;5.38;2.08;;;;;;;11.66;70.27;99184.75;5159643;28;20058;-67
2022/09/18 07:21:09;;;;;;;4.97;1.98;;;;;;;11.59;71.78;99188.09;5152612;28;20163;-67
2022/09/18 07:24:01;;;;;;;6.47;2.15;;;;;;;12.26;69.70;99191.47;5159748;28;20156;-67
2022/09/18 07:26:54;;;;;;;4.03;1.60;;;;;;;12.12;69.31;99179.50;5156962;28;20057;-71
2022/09/18 07:29:46;;;;;;;5.95;2.28;;;;;;;12.50;69.27;99186.38;5157346;28;20062;-69
2022/09/18 07:32:37;;;;;;;7.45;2.47;;;;;;;12.31;68.78;99186.50;5158731;28;20074;-68
2022/09/18 07:35:33;;;;;;;10.20;1.90;;;;;;;11.81;69.45;99163.81;5159491;28;20415;-70
2022/09/18 07:38:26;;;;;;;5.97;1.85;;;;;;;12.34;68.38;99195.03;5142939;28;20141;-70
2022/09/18 07:41:19;;;;;;;5.93;2.00;;;;;;;12.11;70.06;99178.66;5158570;28;20053;-70
2022/09/18 07:44:09;;;;;;;6.65;1.80;;;;;;;12.84;67.78;99196.34;5158987;28;20046;-71
2022/09/18 07:47:01;;;;;;;8.60;2.25;;;;;;;12.57;67.55;99207.91;5158073;28;20081;-71
2022/09/18 07:49:55;;;;;;;9.00;1.75;;;;;;;12.50;67.43;99189.03;5151044;28;20058;-69
2022/09/18 07:52:53;;;;;;;6.10;1.30;;;;;;;12.19;68.12;99202.69;5139395;28;20467;-68
2022/09/18 07:55:48;;;;;;;3.53;1.42;;;;;;;12.67;67.49;99206.00;5163966;28;20138;-69
2022/09/18 07:58:38;;;;;;;5.07;1.50;;;;;;;12.58;67.49;99210.41;5145600;28;20124;-69
2022/09/18 08:01:42;;;;;;;5.47;1.65;;;;;;;12.75;68.03;99211.41;5157270;28;20053;-68
2022/09/18 08:04:33;;;;;;;3.67;1.38;;;;;;;13.34;66.22;99209.06;5159139;28;20140;-68
2022/09/18 08:07:32;;;;;;;1.98;1.10;;;;;;;12.64;67.49;99217.75;5157968;28;20173;-68
2022/09/18 08:10:45;;;;;;;9.57;1.52;;;;;;;12.94;66.37;99194.41;5160997;28;20515;-67
2022/09/18 08:14:02;;;;;;;4.13;1.63;;;;;;;12.90;66.02;99209.03;5143090;28;20156;-67
2022/09/18 08:17:04;;;;;;;6.90;1.55;;;;;;;12.35;67.40;99217.13;5156081;28;20058;-68
2022/09/18 08:20:11;;;;;;;5.18;1.70;;;;;;;12.52;67.83;99219.00;5158581;28;20054;-68
2022/09/18 08:23:08;;;;;;;5.80;1.15;;;;;;;12.04;67.32;99213.97;5158197;28;20073;-67
2022/09/18 08:26:03;;;;;;;6.82;1.95;;;;;;;12.43;68.03;99211.91;5158415;28;20104;-68
2022/09/18 08:28:54;;;;;;;2.60;1.27;;;;;;;12.38;67.27;99224.81;5159648;28;20511;-68
2022/09/18 08:31:45;;;;;;;4.75;1.15;;;;;;;12.21;67.94;99221.13;5162743;28;20053;-67
2022/09/18 08:34:37;;;;;;;2.78;1.25;;;;;;;12.65;67.16;99208.00;5163539;28;20077;-69
2022/09/18 08:37:29;;;;;;;4.50;1.40;;;;;;;13.47;64.43;99213.97;5149500;28;20607;-68
2022/09/18 08:40:41;;;;;;;3.25;1.63;;;;;;;13.31;64.94;99225.34;5164107;28;20053;-68
2022/09/18 08:43:56;;;;;;;3.42;1.42;;;;;;;13.39;63.88;99215.59;5175828;28;20108;-67
2022/09/18 08:46:55;;;;;;;2.45;1.20;;;;;;;13.54;65.38;99210.53;5161292;28;20432;-67
2022/09/18 08:50:00;;;;;;;3.17;1.30;;;;;;;13.91;62.99;99212.06;5161505;28;20090;-68
2022/09/18 08:52:58;;;;;;;7.03;1.30;;;;;;;12.90;65.32;99207.19;5162915;28;20073;-67
2022/09/18 08:56:00;;;;;;;3.60;1.20;;;;;;;13.60;63.17;99220.53;5160916;28;20065;-67
2022/09/18 08:59:26;;;;;;;4.75;1.58;;;;;;;13.25;65.24;99216.16;5163231;28;20046;-67
2022/09/18 09:02:39;;;;;;;5.50;1.30;;;;;;;12.85;64.73;99209.50;5159634;28;20042;-68
2022/09/18 09:05:41;;;;;;;2.20;1.50;;;;;;;13.27;64.29;99219.50;5155623;28;20056;-69
2022/09/18 09:08:55;;;;;;;4.18;1.80;;;;;;;14.31;62.65;99208.69;5142695;28;20054;-68
2022/09/18 09:12:07;;;;;;;6.78;1.63;;;;;;;14.21;62.35;99221.34;5163221;28;20417;-69
2022/09/18 09:15:33;;;;;;;4.78;1.80;;;;;;;14.17;61.48;99229.81;5135915;28;20761;-69
2022/09/18 09:18:56;;;;;;;4.60;1.40;;;;;;;13.90;63.28;99226.38;5158006;28;20050;-68
2022/09/18 09:22:00;;;;;;;2.75;1.40;;;;;;;14.19;62.09;99225.16;5154966;28;20046;-67
2022/09/18 09:25:12;;;;;;;8.52;1.77;;;;;;;14.03;61.71;99221.41;5162633;28;20511;-68
2022/09/18 09:28:20;;;;;;;5.75;1.60;;;;;;;13.12;64.10;99219.19;5172105;28;20061;-68
2022/09/18 09:31:36;;;;;;;4.00;1.58;;;;;;;13.16;63.73;99217.88;5160086;28;20069;-68
2022/09/18 09:35:14;;;;;;;5.50;1.75;;;;;;;14.04;62.06;99209.78;5159007;28;20057;-67
2022/09/18 09:38:51;;;;;;;3.38;1.65;;;;;;;14.03;62.00;99216.09;5163383;28;20061;-67
2022/09/18 09:41:57;;;;;;;4.00;1.45;;;;;;;13.68;61.51;99214.44;5158051;28;20050;-68
2022/09/18 09:44:54;;;;;;;5.45;1.08;;;;;;;14.05;61.56;99213.28;5159339;28;20089;-67
2022/09/18 09:48:00;;;;;;;5.22;1.70;;;;;;;13.45;63.14;99195.50;5183660;23;20045;-84
2022/09/18 09:50:58;;;;;;;7.38;1.88;;;;;;;13.84;62.83;99206.53;5205857;28;20503;-84
2022/09/18 09:53:51;;;;;;;6.50;1.63;;;;;;;13.72;63.32;99206.97;5206671;28;20056;-84
2022/09/18 09:56:59;;;;;;;4.10;1.63;;;;;;;13.78;61.75;99211.66;5192914;28;20046;-83
2022/09/18 10:00:26;;;;;;;4.88;1.60;;;;;;;14.37;61.47;99187.69;5189823;28;20077;-85
2022/09/18 10:03:31;;;;;;;;;;;;;;;14.66;60.92;99216.63;5186017;28;20057;-83
2022/09/18 10:06:57;;;;;;;10.57;2.55;;;;;;;15.28;60.51;99222.34;5185486;28;20039;-84
2022/09/18 10:10:13;;;;;;;;;;;;;;;13.95;61.99;99223.25;5173321;28;20068;-85
2022/09/18 10:13:15;;;;;;;9.93;1.40;;;;;;;14.97;59.05;99199.00;5176744;28;20009;-84
2022/09/18 10:16:21;;;;;;;7.85;1.30;;;;;;;15.13;60.06;99218.66;5192161;28;20054;-84
2022/09/18 10:19:15;;;;;;;5.70;1.40;;;;;;;15.48;58.95;99220.97;5185945;28;20085;-84
2022/09/18 10:22:08;;;;;;;5.43;1.65;;;;;;;15.34;56.69;99200.28;5172088;28;20053;-83
2022/09/18 10:25:31;;;;;;;4.75;1.75;;;;;;;15.88;56.64;99186.31;5191514;28;20064;-84
2022/09/18 10:28:24;;;;;;;4.47;1.35;;;;;;;15.81;57.34;99222.78;5185806;28;20089;-83
2022/09/18 10:31:16;;;;;;;11.18;1.60;;;;;;;15.21;57.47;99200.81;5180951;28;20108;-83
2022/09/18 10:34:32;;;;;;;6.88;1.00;;;;;;;14.80;57.88;99187.47;5182603;28;20045;-84
2022/09/18 10:37:27;;;;;;;4.88;0.90;;;;;;;15.09;57.99;99212.00;5175855;28;20054;-82
2022/09/18 10:40:36;;;;;;;8.70;1.10;;;;;;;15.60;57.46;99172.53;5189840;28;20096;-83
2022/09/18 10:43:27;;;;;;;7.82;1.10;;;;;;;16.86;55.57;99197.31;5187449;28;20065;-83
2022/09/18 10:46:31;;;;;;;6.38;1.20;;;;;;;16.82;54.34;99179.09;5177094;28;20481;-83
2022/09/18 10:49:27;;;;;;;5.77;1.13;;;;;;;16.20;55.26;99201.41;5165835;28;20057;-83
2022/09/18 10:52:34;;;;;;;3.13;1.08;;;;;;;15.93;56.70;99190.16;5181353;28;20049;-82
2022/09/18 10:55:49;;;;;;;3.92;1.02;;;;;;;15.42;56.88;99186.91;5201507;28;20056;-83
2022/09/18 10:58:45;;;;;;;5.18;1.25;;;;;;;15.79;54.79;99152.59;5181989;28;20093;-83
2022/09/18 11:01:36;;;;;;;7.15;1.20;;;;;;;16.23;55.96;99166.25;5180660;28;20052;-84
2022/09/18 11:04:33;;;;;;;5.13;1.10;;;;;;;16.61;53.92;99177.06;5201952;28;20523;-82
2022/09/18 11:07:24;;;;;;;4.75;1.05;;;;;;;16.60;54.07;99160.16;5175664;28;20050;-82
2022/09/18 11:10:18;;;;;;;7.45;1.00;;;;;;;16.20;54.07;99158.59;5163496;28;20445;-81
2022/09/18 11:13:20;;;;;;;6.03;1.33;;;;;;;15.52;56.56;99165.34;5168977;28;20113;-81
2022/09/18 11:16:21;;;;;;;3.95;0.88;;;;;;;16.06;52.30;99165.53;5170419;28;20061;-81
2022/09/18 11:19:24;;;;;;;6.60;1.10;;;;;;;16.62;53.35;99143.91;5164714;28;20073;-82
2022/09/18 11:22:31;;;;;;;1.70;0.57;;;;;;;16.10;52.95;99152.63;5180886;28;20581;-83
2022/09/18 11:25:27;;;;;;;8.02;2.05;;;;;;;16.60;52.00;99135.25;5176816;28;20591;-82
2022/09/18 11:28:30;;;;;;;1.42;0.77;;;;;;;16.01;51.82;99157.19;5184721;28;20062;-83
2022/09/18 11:31:26;;;;;;;4.50;0.60;;;;;;;17.11;51.85;99136.31;5180285;28;20099;-83
2022/09/18 11:34:34;;;;;;;3.58;0.88;;;;;;;16.62;51.81;99133.19;5171950;28;20454;-81
2022/09/18 11:37:38;;;;;;;3.50;0.80;;;;;;;17.44;49.74;99121.75;5165342;28;20161;-81
2022/09/18 11:40:31;;;;;;;;;;;;;;;17.05;49.26;99121.00;5187955;28;20060;-83
2022/09/18 11:43:28;;;;;;;6.43;0.70;;;;;;;17.88;49.47;99105.69;5169384;28;19945;-83
2022/09/18 11:46:37;;;;;;;6.90;0.88;;;;;;;18.06;48.29;99118.66;5166559;28;20046;-82
2022/09/18 11:49:35;;;;;;;6.80;0.85;;;;;;;18.64;47.32;99114.13;5176274;28;20518;-83
2022/09/18 11:52:32;;;;;;;5.93;0.90;;;;;;;17.98;47.88;99094.63;5185399;28;20080;-83
2022/09/18 11:55:37;;;;;;;6.38;1.20;;;;;;;17.35;50.74;99104.91;5176284;28;20053;-85
2022/09/18 11:58:59;;;;;;;4.28;0.90;;;;;;;16.86;50.40;99106.28;5162719;28;20048;-84
2022/09/18 12:01:56;;;;;;;4.25;0.75;;;;;;;18.22;48.97;99086.22;5182172;28;20057;-83
2022/09/18 12:04:53;;;;;;;1.88;0.68;;;;;;;17.69;47.86;99090.97;5176314;28;20421;-83
2022/09/18 12:07:50;;;;;;;3.53;0.63;;;;;;;16.79;48.78;99105.34;5162289;28;20050;-83
2022/09/18 12:11:12;;;;;;;6.53;0.80;;;;;;;16.78;48.99;99118.88;5173082;28;20107;-83
2022/09/18 12:14:32;;;;;;;1.25;0.75;;;;;;;16.84;46.59;99086.03;5175862;28;20054;-83
2022/09/18 12:17:56;;;;;;;6.88;0.93;;;;;;;16.57;49.05;99079.38;5174746;28;20760;-82
2022/09/18 12:21:01;;;;;;;2.15;0.68;;;;;;;15.88;49.67;99095.41;5174069;28;20053;-83
2022/09/18 12:23:51;;;;;;;;;;;;;;;16.20;49.05;99083.69;5164387;28;20489;-81
2022/09/18 12:26:57;;;;;;;1.95;0.57;;;;;;;16.25;47.76;99086.63;5155704;28;20008;-81
2022/09/18 12:30:02;;;;;;;4.43;0.68;;;;;;;16.41;46.64;99059.75;5183405;28;20057;-82
2022/09/18 12:32:52;;;;;;;3.40;0.80;;;;;;;16.60;46.10;99061.13;5179950;28;20154;-83
2022/09/18 12:36:12;;;;;;;4.15;0.80;;;;;;;16.25;46.62;99048.34;5183677;28;20075;-81
2022/09/18 12:39:18;;;;;;;3.45;0.77;;;;;;;16.22;47.55;99033.50;5164807;28;20559;-84
2022/09/18 12:42:42;;;;;;;2.35;0.80;;;;;;;15.75;47.28;99045.16;5162785;28;20042;-82
2022/09/18 12:45:35;;;;;;;3.50;0.82;;;;;;;15.62;48.39;99067.09;5162324;28;20057;-82
2022/09/18 12:48:36;;;;;;;4.72;0.63;;;;;;;16.51;48.34;99064.88;5181763;28;20120;-82
2022/09/18 12:51:46;;;;;;;1.80;0.70;;;;;;;16.63;47.42;99081.34;5164147;28;20100;-81
2022/09/18 12:55:07;;;;;;;1.10;0.75;;;;;;;16.77;46.57;99067.19;5197289;28;20057;-82
2022/09/18 12:58:16;;;;;;;5.55;0.82;;;;;;;15.63;47.83;99049.19;5174463;28;20058;-81
2022/09/18 13:01:28;;;;;;;7.93;0.85;;;;;;;15.37;49.78;99062.88;5154813;28;20188;-81
2022/09/18 13:04:37;;;;;;;3.72;0.95;;;;;;;15.81;48.15;99071.22;5181179;28;20147;-81
2022/09/18 13:07:33;;;;;;;5.38;0.77;;;;;;;16.16;48.55;99063.66;5182979;28;20069;-81
2022/09/18 13:10:33;;;;;;;4.97;0.60;;;;;;;16.03;47.37;99066.91;5169077;28;20061;-80
2022/09/18 13:13:42;;;;;;;3.20;0.90;;;;;;;15.77;48.03;99075.25;5181635;28;20042;-80
2022/09/18 13:16:39;;;;;;;4.63;0.63;;;;;;;15.62;49.21;99032.34;5182347;28;20061;-82
2022/09/18 13:19:37;;;;;;;5.05;0.85;;;;;;;15.90;47.67;99075.50;5173317;28;20184;-81
2022/09/18 13:22:34;;;;;;;2.08;0.65;;;;;;;15.46;49.43;99064.47;5185605;28;20058;-81
2022/09/18 13:25:33;;;;;;;6.70;0.98;;;;;;;15.71;48.62;99067.91;5187688;28;20053;-81
2022/09/18 13:28:26;;;;;;;1.77;0.77;;;;;;;16.34;48.08;99058.00;5188800;28;20045;-81
2022/09/18 13:31:22;;;;;;;2.95;0.90;;;;;;;16.25;48.11;99062.56;5200250;28;20050;-81
2022/09/18 13:34:16;;;;;;;2.80;0.70;;;;;;;15.47;49.47;99069.66;5186159;28;20049;-80
2022/09/18 13:37:06;;;;;;;5.57;0.95;;;;;;;15.65;49.94;99041.84;5199933;28;20451;-81
2022/09/18 13:39:59;;;;;;;4.05;1.20;;;;;;;16.27;48.87;99062.41;5186328;28;20045;-81
2022/09/18 13:43:28;;;;;;;3.08;0.82;;;;;;;16.03;47.47;99050.03;5187155;28;20089;-81
2022/09/18 13:46:36;;;;;;;5.72;1.17;;;;;;;15.59;49.13;99050.56;5187443;28;20566;-81
2022/09/18 13:49:32;;;;;;;1.02;0.60;;;;;;;15.70;48.12;99036.88;5172517;28;20089;-81
2022/09/18 13:52:32;;;;;;;2.15;0.60;;;;;;;15.40;49.02;99054.50;5182967;28;20050;-81
2022/09/18 13:55:24;;;;;;;9.98;1.35;;;;;;;15.01;50.26;99045.44;5186609;28;20042;-81
2022/09/18 13:58:35;;;;;;;4.50;0.90;;;;;;;15.01;49.33;99048.13;5186838;28;20594;-82
2022/09/18 14:01:40;;;;;;;5.55;1.35;;;;;;;15.21;49.27;99051.22;5172218;28;20064;-81
2022/09/18 14:04:37;;;;;;;5.47;0.90;;;;;;;15.22;50.04;99044.03;5200602;28;20092;-81